sensor_id;sensor_type;location;lat;lon;timestamp;P1;durP1;ratioP1;P2;durP2;ratioP2
25169;SDS011;13129;48.012;10.352;2022-08-19T03:31:49;20.25;;;18.13;;
25169;SDS011;13129;48.012;10.352;2022-08-19T03:34:27;22.50;;;19.55;;
25169;SDS011;13129;48.012;10.352;2022-08-19T03:36:55;22.35;;;19.80;;
25169;SDS011;13129;48.012;10.352;2022-08-19T03:39:24;23.75;;;20.55;;
25169;SDS011;13129;48.012;10.352;2022-08-19T03:41:51;20.70;;;18.52;;
25169;SDS011;13129;48.012;10.352;2022-08-19T03:44:21;23.23;;;20.63;;
25169;SDS011;13129;48.012;10.352;2022-08-19T03:46:52;22.55;;;19.25;;
25169;SDS011;13129;48.012;10.352;2022-08-19T03:49:20;25.08;;;19.80;;
25169;SDS011;13129;48.012;10.352;2022-08-19T03:51:49;23.17;;;20.60;;
25169;SDS011;13129;48.012;10.352;2022-08-19T03:54:17;24.25;;;20.73;;
25169;SDS011;13129;48.012;10.352;2022-08-19T03:56:44;24.92;;;21.33;;
25169;SDS011;13129;48.012;10.352;2022-08-19T03:59:13;26.83;;;22.75;;
25169;SDS011;13129;48.012;10.352;2022-08-19T04:01:41;27.83;;;24.80;;
25169;SDS011;13129;48.012;10.352;2022-08-19T04:04:07;27.85;;;24.08;;
25169;SDS011;13129;48.012;10.352;2022-08-19T04:06:35;28.00;;;24.17;;
25169;SDS011;13129;48.012;10.352;2022-08-19T04:09:03;29.33;;;23.15;;
25169;SDS011;13129;48.012;10.352;2022-08-19T04:11:31;28.05;;;24.00;;
25169;SDS011;13129;48.012;10.352;2022-08-19T04:14:06;29.50;;;22.92;;
25169;SDS011;13129;48.012;10.352;2022-08-19T04:16:37;26.88;;;23.35;;
25169;SDS011;13129;48.012;10.352;2022-08-19T04:19:03;25.48;;;21.08;;
25169;SDS011;13129;48.012;10.352;2022-08-19T04:21:33;24.40;;;21.35;;
25169;SDS011;13129;48.012;10.352;2022-08-19T04:23:59;24.88;;;19.83;;
25169;SDS011;13129;48.012;10.352;2022-08-19T04:26:27;21.63;;;18.95;;
25169;SDS011;13129;48.012;10.352;2022-08-19T04:28:59;19.90;;;17.75;;
25169;SDS011;13129;48.012;10.352;2022-08-19T04:31:36;19.75;;;17.05;;
25169;SDS011;13129;48.012;10.352;2022-08-19T04:34:03;18.63;;;15.63;;
25169;SDS011;13129;48.012;10.352;2022-08-19T04:36:32;18.92;;;16.88;;
25169;SDS011;13129;48.012;10.352;2022-08-19T04:39:00;21.48;;;17.40;;
25169;SDS011;13129;48.012;10.352;2022-08-19T04:41:31;19.70;;;16.83;;
25169;SDS011;13129;48.012;10.352;2022-08-19T04:44:15;20.73;;;17.50;;
25169;SDS011;13129;48.012;10.352;2022-08-19T04:46:43;21.58;;;17.70;;
25169;SDS011;13129;48.012;10.352;2022-08-19T04:49:10;20.25;;;16.88;;
25169;SDS011;13129;48.012;10.352;2022-08-19T04:51:36;17.60;;;15.75;;
25169;SDS011;13129;48.012;10.352;2022-08-19T04:54:06;17.55;;;15.70;;
25169;SDS011;13129;48.012;10.352;2022-08-19T04:56:32;18.08;;;15.88;;
25169;SDS011;13129;48.012;10.352;2022-08-19T04:58:57;17.23;;;15.43;;
25169;SDS011;13129;48.012;10.352;2022-08-19T05:01:28;18.55;;;15.95;;
25169;SDS011;13129;48.012;10.352;2022-08-19T05:03:57;16.42;;;14.75;;
25169;SDS011;13129;48.012;10.352;2022-08-19T05:06:29;17.45;;;14.95;;
25169;SDS011;13129;48.012;10.352;2022-08-19T05:08:57;17.48;;;15.68;;
25169;SDS011;13129;48.012;10.352;2022-08-19T05:11:25;18.13;;;14.90;;
25169;SDS011;13129;48.012;10.352;2022-08-19T05:13:52;16.90;;;15.00;;
25169;SDS011;13129;48.012;10.352;2022-08-19T05:16:20;15.25;;;13.60;;
25169;SDS011;13129;48.012;10.352;2022-08-19T05:18:47;17.45;;;15.65;;
25169;SDS011;13129;48.012;10.352;2022-08-19T05:21:32;31.92;;;25.42;;
25169;SDS011;13129;48.012;10.352;2022-08-19T05:24:17;34.03;;;26.73;;
25169;SDS011;13129;48.012;10.352;2022-08-19T05:26:46;38.53;;;29.60;;
25169;SDS011;13129;48.012;10.352;2022-08-19T05:29:14;39.70;;;31.20;;
25169;SDS011;13129;48.012;10.352;2022-08-19T05:31:41;39.00;;;30.98;;
25169;SDS011;13129;48.012;10.352;2022-08-19T05:34:08;43.05;;;33.47;;
25169;SDS011;13129;48.012;10.352;2022-08-19T05:36:36;41.33;;;32.25;;
25169;SDS011;13129;48.012;10.352;2022-08-19T05:39:06;43.03;;;33.35;;
25169;SDS011;13129;48.012;10.352;2022-08-19T05:41:33;41.65;;;32.13;;
25169;SDS011;13129;48.012;10.352;2022-08-19T05:44:03;44.65;;;34.55;;
25169;SDS011;13129;48.012;10.352;2022-08-19T05:46:34;45.40;;;35.10;;
25169;SDS011;13129;48.012;10.352;2022-08-19T05:49:03;47.65;;;36.30;;
25169;SDS011;13129;48.012;10.352;2022-08-19T05:51:31;44.63;;;35.75;;
25169;SDS011;13129;48.012;10.352;2022-08-19T05:54:02;44.95;;;35.35;;
25169;SDS011;13129;48.012;10.352;2022-08-19T05:56:33;42.85;;;34.05;;
25169;SDS011;13129;48.012;10.352;2022-08-19T05:59:06;46.08;;;36.05;;
25169;SDS011;13129;48.012;10.352;2022-08-19T06:01:34;40.38;;;33.08;;
25169;SDS011;13129;48.012;10.352;2022-08-19T06:04:01;42.42;;;33.40;;
25169;SDS011;13129;48.012;10.352;2022-08-19T06:06:35;44.38;;;34.65;;
25169;SDS011;13129;48.012;10.352;2022-08-19T06:09:07;48.08;;;34.97;;
25169;SDS011;13129;48.012;10.352;2022-08-19T06:11:51;52.00;;;37.70;;
25169;SDS011;13129;48.012;10.352;2022-08-19T06:14:35;50.70;;;36.35;;
25169;SDS011;13129;48.012;10.352;2022-08-19T06:18:46;45.60;;;33.28;;
25169;SDS011;13129;48.012;10.352;2022-08-19T06:27:59;43.08;;;32.42;;
25169;SDS011;13129;48.012;10.352;2022-08-19T06:37:55;43.92;;;32.50;;
25169;SDS011;13129;48.012;10.352;2022-08-19T06:48:16;41.53;;;30.48;;
25169;SDS011;13129;48.012;10.352;2022-08-19T07:08:52;32.13;;;23.83;;
25169;SDS011;13129;48.012;10.352;2022-08-19T07:11:36;28.42;;;24.15;;
25169;SDS011;13129;48.012;10.352;2022-08-19T07:27:20;32.13;;;24.80;;
25169;SDS011;13129;48.012;10.352;2022-08-19T07:29:52;31.75;;;23.60;;
25169;SDS011;13129;48.012;10.352;2022-08-19T07:32:19;27.40;;;22.42;;
25169;SDS011;13129;48.012;10.352;2022-08-19T07:34:45;31.23;;;22.30;;
25169;SDS011;13129;48.012;10.352;2022-08-19T07:37:38;27.75;;;23.13;;
25169;SDS011;13129;48.012;10.352;2022-08-19T07:40:09;25.60;;;20.05;;
25169;SDS011;13129;48.012;10.352;2022-08-19T07:42:41;28.33;;;21.17;;
25169;SDS011;13129;48.012;10.352;2022-08-19T07:45:26;23.63;;;20.17;;
25169;SDS011;13129;48.012;10.352;2022-08-19T07:48:12;25.58;;;19.70;;
25169;SDS011;13129;48.012;10.352;2022-08-19T07:50:48;25.20;;;19.88;;
25169;SDS011;13129;48.012;10.352;2022-08-19T07:53:14;22.20;;;18.63;;
25169;SDS011;13129;48.012;10.352;2022-08-19T07:55:40;23.52;;;19.15;;
25169;SDS011;13129;48.012;10.352;2022-08-19T07:58:05;22.20;;;19.13;;
25169;SDS011;13129;48.012;10.352;2022-08-19T08:00:31;21.30;;;18.10;;
25169;SDS011;13129;48.012;10.352;2022-08-19T08:02:57;20.35;;;17.55;;
25169;SDS011;13129;48.012;10.352;2022-08-19T08:05:23;22.98;;;17.42;;
25169;SDS011;13129;48.012;10.352;2022-08-19T08:08:11;22.27;;;17.92;;
25169;SDS011;13129;48.012;10.352;2022-08-19T08:10:59;19.30;;;16.27;;
25169;SDS011;13129;48.012;10.352;2022-08-19T08:13:40;17.35;;;14.98;;
25169;SDS011;13129;48.012;10.352;2022-08-19T08:16:14;16.02;;;14.32;;
25169;SDS011;13129;48.012;10.352;2022-08-19T08:18:42;19.45;;;15.05;;
25169;SDS011;13129;48.012;10.352;2022-08-19T08:21:08;17.58;;;14.95;;
25169;SDS011;13129;48.012;10.352;2022-08-19T08:23:47;17.50;;;14.85;;
25169;SDS011;13129;48.012;10.352;2022-08-19T08:26:13;18.13;;;14.30;;
25169;SDS011;13129;48.012;10.352;2022-08-19T08:28:40;15.82;;;13.55;;
25169;SDS011;13129;48.012;10.352;2022-08-19T08:31:06;18.50;;;15.20;;
25169;SDS011;13129;48.012;10.352;2022-08-19T08:33:31;17.48;;;14.95;;
25169;SDS011;13129;48.012;10.352;2022-08-19T08:35:57;18.17;;;15.23;;
25169;SDS011;13129;48.012;10.352;2022-08-19T08:38:23;18.95;;;15.25;;
25169;SDS011;13129;48.012;10.352;2022-08-19T08:40:59;19.50;;;16.42;;
25169;SDS011;13129;48.012;10.352;2022-08-19T08:43:35;20.42;;;15.20;;
25169;SDS011;13129;48.012;10.352;2022-08-19T08:46:10;18.10;;;15.02;;
25169;SDS011;13129;48.012;10.352;2022-08-19T08:48:54;17.35;;;15.48;;
25169;SDS011;13129;48.012;10.352;2022-08-19T08:51:29;18.45;;;15.68;;
25169;SDS011;13129;48.012;10.352;2022-08-19T08:54:00;19.77;;;15.48;;
25169;SDS011;13129;48.012;10.352;2022-08-19T08:56:31;18.63;;;16.60;;
25169;SDS011;13129;48.012;10.352;2022-08-19T08:59:18;17.75;;;14.82;;
25169;SDS011;13129;48.012;10.352;2022-08-19T09:01:46;20.10;;;15.68;;
25169;SDS011;13129;48.012;10.352;2022-08-19T09:04:13;19.83;;;16.38;;
25169;SDS011;13129;48.012;10.352;2022-08-19T09:09:16;21.58;;;17.73;;
25169;SDS011;13129;48.012;10.352;2022-08-19T09:14:36;18.75;;;15.27;;
25169;SDS011;13129;48.012;10.352;2022-08-19T09:17:24;18.05;;;14.63;;
25169;SDS011;13129;48.012;10.352;2022-08-19T09:22:37;18.50;;;14.85;;
25169;SDS011;13129;48.012;10.352;2022-08-19T09:25:11;22.77;;;17.92;;
25169;SDS011;13129;48.012;10.352;2022-08-19T09:27:39;24.60;;;17.60;;
25169;SDS011;13129;48.012;10.352;2022-08-19T09:30:06;26.95;;;19.80;;
25169;SDS011;13129;48.012;10.352;2022-08-19T09:32:37;26.88;;;21.85;;
25169;SDS011;13129;48.012;10.352;2022-08-19T09:35:07;32.15;;;25.05;;
25169;SDS011;13129;48.012;10.352;2022-08-19T09:37:34;33.25;;;25.55;;
25169;SDS011;13129;48.012;10.352;2022-08-19T09:40:00;32.67;;;25.13;;
25169;SDS011;13129;48.012;10.352;2022-08-19T09:42:26;32.13;;;25.48;;
25169;SDS011;13129;48.012;10.352;2022-08-19T09:44:51;33.10;;;26.83;;
25169;SDS011;13129;48.012;10.352;2022-08-19T09:47:17;33.25;;;25.52;;
25169;SDS011;13129;48.012;10.352;2022-08-19T09:49:43;35.22;;;25.38;;
25169;SDS011;13129;48.012;10.352;2022-08-19T09:52:09;36.83;;;27.52;;
25169;SDS011;13129;48.012;10.352;2022-08-19T09:54:36;34.88;;;27.48;;
25169;SDS011;13129;48.012;10.352;2022-08-19T09:57:02;34.65;;;26.88;;
25169;SDS011;13129;48.012;10.352;2022-08-19T09:59:28;37.75;;;26.13;;
25169;SDS011;13129;48.012;10.352;2022-08-19T10:01:54;34.10;;;25.85;;
25169;SDS011;13129;48.012;10.352;2022-08-19T10:04:20;32.90;;;24.83;;
25169;SDS011;13129;48.012;10.352;2022-08-19T10:06:47;36.40;;;27.02;;
25169;SDS011;13129;48.012;10.352;2022-08-19T10:09:14;34.58;;;23.60;;
25169;SDS011;13129;48.012;10.352;2022-08-19T10:11:42;24.63;;;19.25;;
25169;SDS011;13129;48.012;10.352;2022-08-19T10:14:13;8.85;;;6.88;;
25169;SDS011;13129;48.012;10.352;2022-08-19T10:16:40;10.25;;;7.97;;
25169;SDS011;13129;48.012;10.352;2022-08-19T10:19:07;12.18;;;10.20;;
25169;SDS011;13129;48.012;10.352;2022-08-19T10:21:33;13.73;;;10.85;;
25169;SDS011;13129;48.012;10.352;2022-08-19T10:24:00;10.23;;;8.38;;
25169;SDS011;13129;48.012;10.352;2022-08-19T10:26:33;7.93;;;6.45;;
25169;SDS011;13129;48.012;10.352;2022-08-19T10:29:02;6.38;;;5.78;;
25169;SDS011;13129;48.012;10.352;2022-08-19T10:31:30;7.32;;;6.63;;
25169;SDS011;13129;48.012;10.352;2022-08-19T10:33:59;8.38;;;7.25;;
25169;SDS011;13129;48.012;10.352;2022-08-19T10:36:30;7.80;;;7.00;;
25169;SDS011;13129;48.012;10.352;2022-08-19T10:39:03;7.28;;;6.10;;
25169;SDS011;13129;48.012;10.352;2022-08-19T10:41:36;8.70;;;7.80;;
25169;SDS011;13129;48.012;10.352;2022-08-19T10:44:04;9.32;;;8.20;;
25169;SDS011;13129;48.012;10.352;2022-08-19T10:46:32;11.35;;;8.75;;
25169;SDS011;13129;48.012;10.352;2022-08-19T10:49:02;12.02;;;8.15;;
25169;SDS011;13129;48.012;10.352;2022-08-19T10:51:29;9.73;;;8.57;;
25169;SDS011;13129;48.012;10.352;2022-08-19T10:54:23;9.40;;;8.43;;
25169;SDS011;13129;48.012;10.352;2022-08-19T10:57:37;8.48;;;7.50;;
25169;SDS011;13129;48.012;10.352;2022-08-19T11:00:33;6.75;;;6.15;;
25169;SDS011;13129;48.012;10.352;2022-08-19T11:03:11;7.32;;;6.50;;
25169;SDS011;13129;48.012;10.352;2022-08-19T11:13:05;3.38;;;3.08;;
25169;SDS011;13129;48.012;10.352;2022-08-19T11:15:34;3.63;;;3.33;;
25169;SDS011;13129;48.012;10.352;2022-08-19T11:26:22;5.15;;;4.65;;
25169;SDS011;13129;48.012;10.352;2022-08-19T11:29:03;5.55;;;4.75;;
25169;SDS011;13129;48.012;10.352;2022-08-19T11:38:55;17.10;;;14.35;;
25169;SDS011;13129;48.012;10.352;2022-08-19T11:45:22;22.33;;;17.27;;
25169;SDS011;13129;48.012;10.352;2022-08-19T11:48:19;24.42;;;18.88;;
25169;SDS011;13129;48.012;10.352;2022-08-19T12:46:57;29.98;;;23.50;;
25169;SDS011;13129;48.012;10.352;2022-08-19T12:50:32;25.52;;;21.10;;
25169;SDS011;13129;48.012;10.352;2022-08-19T12:57:24;22.52;;;19.92;;
25169;SDS011;13129;48.012;10.352;2022-08-19T13:14:59;22.73;;;19.13;;
25169;SDS011;13129;48.012;10.352;2022-08-19T13:17:43;21.40;;;17.95;;
25169;SDS011;13129;48.012;10.352;2022-08-19T13:20:52;19.13;;;17.00;;
25169;SDS011;13129;48.012;10.352;2022-08-19T13:23:45;18.90;;;15.80;;
25169;SDS011;13129;48.012;10.352;2022-08-19T13:26:21;16.27;;;14.55;;
25169;SDS011;13129;48.012;10.352;2022-08-19T13:28:47;15.50;;;12.52;;
25169;SDS011;13129;48.012;10.352;2022-08-19T13:31:35;14.38;;;12.32;;
25169;SDS011;13129;48.012;10.352;2022-08-19T13:34:27;11.43;;;10.18;;
25169;SDS011;13129;48.012;10.352;2022-08-19T13:37:07;11.25;;;10.00;;
25169;SDS011;13129;48.012;10.352;2022-08-19T13:39:36;9.75;;;8.80;;
25169;SDS011;13129;48.012;10.352;2022-08-19T13:42:02;9.70;;;7.43;;
25169;SDS011;13129;48.012;10.352;2022-08-19T13:45:29;8.80;;;7.90;;
25169;SDS011;13129;48.012;10.352;2022-08-19T13:48:25;9.40;;;8.25;;
25169;SDS011;13129;48.012;10.352;2022-08-19T13:51:28;8.43;;;7.60;;
25169;SDS011;13129;48.012;10.352;2022-08-19T13:54:00;8.38;;;7.57;;
25169;SDS011;13129;48.012;10.352;2022-08-19T13:56:28;6.32;;;5.72;;
25169;SDS011;13129;48.012;10.352;2022-08-19T13:58:54;5.88;;;5.32;;
25169;SDS011;13129;48.012;10.352;2022-08-19T14:01:22;5.70;;;5.20;;
25169;SDS011;13129;48.012;10.352;2022-08-19T14:03:49;5.40;;;4.90;;
25169;SDS011;13129;48.012;10.352;2022-08-19T14:06:18;5.55;;;4.90;;
25169;SDS011;13129;48.012;10.352;2022-08-19T14:08:45;4.05;;;3.75;;
25169;SDS011;13129;48.012;10.352;2022-08-19T14:11:11;4.45;;;4.10;;
25169;SDS011;13129;48.012;10.352;2022-08-19T14:14:00;4.97;;;4.47;;
25169;SDS011;13129;48.012;10.352;2022-08-19T14:16:25;4.97;;;4.57;;
25169;SDS011;13129;48.012;10.352;2022-08-19T14:18:54;5.60;;;5.10;;
25169;SDS011;13129;48.012;10.352;2022-08-19T14:21:21;6.00;;;5.40;;
25169;SDS011;13129;48.012;10.352;2022-08-19T14:23:48;6.35;;;5.82;;
25169;SDS011;13129;48.012;10.352;2022-08-19T14:26:18;6.93;;;6.32;;
25169;SDS011;13129;48.012;10.352;2022-08-19T14:28:55;7.50;;;6.80;;
25169;SDS011;13129;48.012;10.352;2022-08-19T14:31:22;7.85;;;7.15;;
25169;SDS011;13129;48.012;10.352;2022-08-19T14:33:49;7.85;;;7.05;;
25169;SDS011;13129;48.012;10.352;2022-08-19T14:36:15;7.95;;;7.25;;
25169;SDS011;13129;48.012;10.352;2022-08-19T14:38:42;6.85;;;6.20;;
25169;SDS011;13129;48.012;10.352;2022-08-19T14:43:40;7.03;;;6.40;;
25169;SDS011;13129;48.012;10.352;2022-08-19T14:46:07;7.13;;;6.43;;
25169;SDS011;13129;48.012;10.352;2022-08-19T14:48:33;8.30;;;7.50;;
25169;SDS011;13129;48.012;10.352;2022-08-19T14:51:01;8.02;;;7.30;;
25169;SDS011;13129;48.012;10.352;2022-08-19T14:53:30;8.10;;;7.40;;
25169;SDS011;13129;48.012;10.352;2022-08-19T14:55:58;9.25;;;8.35;;
25169;SDS011;13129;48.012;10.352;2022-08-19T14:58:24;8.57;;;7.72;;
25169;SDS011;13129;48.012;10.352;2022-08-19T15:00:51;9.80;;;8.27;;
25169;SDS011;13129;48.012;10.352;2022-08-19T15:03:16;11.13;;;8.20;;
25169;SDS011;13129;48.012;10.352;2022-08-19T15:05:42;8.68;;;7.45;;
25169;SDS011;13129;48.012;10.352;2022-08-19T15:08:09;6.47;;;5.88;;
25169;SDS011;13129;48.012;10.352;2022-08-19T15:10:35;6.25;;;5.65;;
25169;SDS011;13129;48.012;10.352;2022-08-19T15:13:02;7.10;;;6.47;;
25169;SDS011;13129;48.012;10.352;2022-08-19T15:15:28;7.18;;;6.03;;
25169;SDS011;13129;48.012;10.352;2022-08-19T15:17:55;6.15;;;5.55;;
25169;SDS011;13129;48.012;10.352;2022-08-19T15:20:27;6.00;;;5.40;;
25169;SDS011;13129;48.012;10.352;2022-08-19T15:22:53;5.90;;;5.40;;
25169;SDS011;13129;48.012;10.352;2022-08-19T15:25:19;5.47;;;4.95;;
25169;SDS011;13129;48.012;10.352;2022-08-19T15:27:48;6.15;;;5.18;;
25169;SDS011;13129;48.012;10.352;2022-08-19T15:30:24;6.10;;;5.60;;
25169;SDS011;13129;48.012;10.352;2022-08-19T15:32:53;5.75;;;5.18;;
25169;SDS011;13129;48.012;10.352;2022-08-19T15:35:21;5.63;;;4.97;;
25169;SDS011;13129;48.012;10.352;2022-08-19T15:37:48;5.05;;;4.65;;
25169;SDS011;13129;48.012;10.352;2022-08-19T15:40:15;5.30;;;4.60;;
25169;SDS011;13129;48.012;10.352;2022-08-19T15:42:42;5.03;;;4.60;;
25169;SDS011;13129;48.012;10.352;2022-08-19T15:45:12;5.45;;;4.90;;
25169;SDS011;13129;48.012;10.352;2022-08-19T15:47:38;5.78;;;5.07;;
25169;SDS011;13129;48.012;10.352;2022-08-19T15:50:05;5.13;;;4.65;;
25169;SDS011;13129;48.012;10.352;2022-08-19T15:52:36;5.65;;;5.05;;
25169;SDS011;13129;48.012;10.352;2022-08-19T15:55:09;6.35;;;5.82;;
25169;SDS011;13129;48.012;10.352;2022-08-19T15:57:34;5.90;;;5.40;;
25169;SDS011;13129;48.012;10.352;2022-08-19T16:00:34;5.60;;;5.10;;
25169;SDS011;13129;48.012;10.352;2022-08-19T16:03:35;5.15;;;4.65;;
25169;SDS011;13129;48.012;10.352;2022-08-19T16:06:37;6.35;;;5.85;;
25169;SDS011;13129;48.012;10.352;2022-08-19T16:09:25;7.50;;;6.78;;
25169;SDS011;13129;48.012;10.352;2022-08-19T16:12:46;7.90;;;6.53;;
25169;SDS011;13129;48.012;10.352;2022-08-19T16:22:36;11.48;;;10.43;;
25169;SDS011;13129;48.012;10.352;2022-08-19T16:35:48;12.10;;;10.88;;
25169;SDS011;13129;48.012;10.352;2022-08-19T16:38:58;11.32;;;10.32;;
25169;SDS011;13129;48.012;10.352;2022-08-19T16:56:17;9.35;;;8.55;;
25169;SDS011;13129;48.012;10.352;2022-08-19T17:02:48;11.48;;;10.38;;
25169;SDS011;13129;48.012;10.352;2022-08-19T17:05:17;13.20;;;11.90;;
25169;SDS011;13129;48.012;10.352;2022-08-19T17:22:32;20.88;;;18.58;;
25169;SDS011;13129;48.012;10.352;2022-08-19T17:25:36;24.58;;;21.98;;
25169;SDS011;13129;48.012;10.352;2022-08-19T17:35:53;30.50;;;26.40;;
25169;SDS011;13129;48.012;10.352;2022-08-19T17:57:20;41.10;;;33.28;;
25169;SDS011;13129;48.012;10.352;2022-08-19T18:03:54;37.92;;;32.45;;
25169;SDS011;13129;48.012;10.352;2022-08-19T18:31:22;34.50;;;30.65;;
25169;SDS011;13129;48.012;10.352;2022-08-19T18:37:57;33.85;;;30.00;;
25169;SDS011;13129;48.012;10.352;2022-08-19T19:57:19;11.52;;;10.52;;
25169;SDS011;13129;48.012;10.352;2022-08-19T19:59:57;10.20;;;9.27;;
25169;SDS011;13129;48.012;10.352;2022-08-19T20:03:00;10.40;;;9.50;;
25169;SDS011;13129;48.012;10.352;2022-08-19T20:05:55;10.88;;;9.88;;
25169;SDS011;13129;48.012;10.352;2022-08-19T20:19:12;11.30;;;10.25;;
25169;SDS011;13129;48.012;10.352;2022-08-19T20:22:24;11.27;;;10.27;;
25169;SDS011;13129;48.012;10.352;2022-08-19T20:25:20;12.13;;;11.02;;
25169;SDS011;13129;48.012;10.352;2022-08-19T20:31:24;11.55;;;10.45;;
25169;SDS011;13129;48.012;10.352;2022-08-19T20:34:42;11.43;;;10.43;;
25169;SDS011;13129;48.012;10.352;2022-08-19T20:37:24;11.55;;;10.45;;
25169;SDS011;13129;48.012;10.352;2022-08-19T20:42:39;11.13;;;10.07;;
25169;SDS011;13129;48.012;10.352;2022-08-19T20:45:36;10.38;;;9.35;;
25169;SDS011;13129;48.012;10.352;2022-08-19T20:48:38;9.05;;;8.25;;
25169;SDS011;13129;48.012;10.352;2022-08-19T20:51:06;8.98;;;8.13;;
25169;SDS011;13129;48.012;10.352;2022-08-19T20:53:43;7.45;;;6.35;;
25169;SDS011;13129;48.012;10.352;2022-08-19T20:56:18;6.40;;;5.80;;
25169;SDS011;13129;48.012;10.352;2022-08-19T20:59:07;5.30;;;4.90;;
25169;SDS011;13129;48.012;10.352;2022-08-19T21:02:02;4.80;;;4.20;;
25169;SDS011;13129;48.012;10.352;2022-08-19T21:04:37;3.97;;;3.67;;
25169;SDS011;13129;48.012;10.352;2022-08-19T21:07:09;4.40;;;4.03;;
25169;SDS011;13129;48.012;10.352;2022-08-19T21:09:47;4.15;;;3.72;;
25169;SDS011;13129;48.012;10.352;2022-08-19T21:12:36;4.25;;;3.95;;
25169;SDS011;13129;48.012;10.352;2022-08-19T21:15:03;4.00;;;3.70;;
25169;SDS011;13129;48.012;10.352;2022-08-19T21:17:31;4.47;;;4.18;;
25169;SDS011;13129;48.012;10.352;2022-08-19T21:20:00;4.40;;;4.00;;
25169;SDS011;13129;48.012;10.352;2022-08-19T21:22:52;4.75;;;4.35;;
25169;SDS011;13129;48.012;10.352;2022-08-19T21:25:17;4.50;;;4.20;;
25169;SDS011;13129;48.012;10.352;2022-08-19T21:28:03;4.82;;;4.40;;
25169;SDS011;13129;48.012;10.352;2022-08-19T21:30:35;5.07;;;4.57;;
25169;SDS011;13129;48.012;10.352;2022-08-19T21:33:02;5.45;;;4.95;;
25169;SDS011;13129;48.012;10.352;2022-08-19T21:35:32;5.57;;;5.07;;
25169;SDS011;13129;48.012;10.352;2022-08-19T21:38:04;6.53;;;5.93;;
25169;SDS011;13129;48.012;10.352;2022-08-19T21:40:47;7.47;;;6.68;;
25169;SDS011;13129;48.012;10.352;2022-08-19T21:43:29;9.82;;;7.70;;
25169;SDS011;13129;48.012;10.352;2022-08-19T22:07:26;26.77;;;21.95;;
25169;SDS011;13129;48.012;10.352;2022-08-19T22:10:36;28.90;;;23.48;;
25169;SDS011;13129;48.012;10.352;2022-08-19T22:13:10;32.90;;;26.80;;
25169;SDS011;13129;48.012;10.352;2022-08-19T22:16:25;31.42;;;26.58;;
25169;SDS011;13129;48.012;10.352;2022-08-19T22:19:17;35.00;;;28.30;;
25169;SDS011;13129;48.012;10.352;2022-08-19T22:22:23;37.22;;;29.17;;
25169;SDS011;13129;48.012;10.352;2022-08-19T22:38:39;36.85;;;30.30;;
